Time;durP1;ratioP1;P1;durP2;ratioP2;P2;SDS_P1;SDS_P2;PMS_P1;PMS_P2;Temp;Humidity;BMP_temperature;BMP_pressure;BME280_temperature;BME280_humidity;BME280_pressure;Samples;Min_cycle;Max_cycle;Signal;HPM_P1;HPM_P2
2021/11/15 00:00:52;;;;;;;51.17;20.40;;;;;;;5.39;100.00;102208.94;5008669;28;20042;-80
2021/11/15 00:03:20;;;;;;;52.38;19.88;;;;;;;5.39;100.00;102208.06;5004274;28;20052;-77
2021/11/15 00:05:47;;;;;;;41.70;19.65;;;;;;;5.40;100.00;102207.25;5031640;28;20046;-79
2021/11/15 00:08:13;;;;;;;39.30;18.45;;;;;;;5.40;100.00;102212.44;5003155;28;20124;-83
2021/11/15 00:10:43;;;;;;;49.88;18.63;;;;;;;5.41;100.00;102214.19;5006906;28;20492;-79
2021/11/15 00:13:10;;;;;;;47.83;18.92;;;;;;;5.39;100.00;102206.34;5016888;28;21191;-80
2021/11/15 00:15:37;;;;;;;48.60;18.35;;;;;;;5.40;100.00;102209.84;5017753;28;20136;-82
2021/11/15 00:18:06;;;;;;;47.80;17.77;;;;;;;5.37;100.00;102204.53;5014253;28;20048;-82
2021/11/15 00:20:35;;;;;;;50.65;19.17;;;;;;;5.34;100.00;102201.81;5012809;28;20104;-84
2021/11/15 00:23:06;;;;;;;50.10;20.08;;;;;;;5.34;100.00;102204.41;5028388;28;20151;-80
2021/11/15 00:25:49;;;;;;;53.13;20.95;;;;;;;5.33;100.00;102200.03;4998080;28;20041;-83
2021/11/15 00:28:18;;;;;;;50.55;18.13;;;;;;;5.29;100.00;102205.13;5015501;28;20045;-81
2021/11/15 00:30:45;;;;;;;54.10;19.52;;;;;;;5.28;100.00;102203.34;5013187;28;20050;-79
2021/11/15 00:33:11;;;;;;;56.60;18.90;;;;;;;5.26;100.00;102204.13;5020105;28;20048;-83
2021/11/15 00:35:38;;;;;;;60.50;19.98;;;;;;;5.25;100.00;102205.84;5009690;28;20041;-79
2021/11/15 00:38:08;;;;;;;55.90;19.92;;;;;;;5.23;100.00;102204.91;5017368;28;20083;-81
2021/11/15 00:40:35;;;;;;;52.38;19.67;;;;;;;5.22;100.00;102215.22;5007037;28;20472;-80
2021/11/15 00:43:01;;;;;;;48.75;18.90;;;;;;;5.18;100.00;102215.94;4996985;28;20140;-79
2021/11/15 00:45:28;;;;;;;53.90;19.88;;;;;;;5.17;100.00;102227.16;5015257;28;20060;-82
2021/11/15 00:47:54;;;;;;;52.95;18.55;;;;;;;5.11;100.00;102222.59;5016646;28;20056;-80
2021/11/15 00:50:22;;;;;;;50.67;20.02;;;;;;;5.09;100.00;102225.13;4998422;28;20476;-86
2021/11/15 00:52:52;;;;;;;51.22;18.25;;;;;;;5.08;100.00;102220.75;5028156;28;20338;-80
2021/11/15 00:55:20;;;;;;;56.22;20.75;;;;;;;5.09;100.00;102224.25;5000287;28;20061;-80
2021/11/15 00:57:48;;;;;;;53.67;21.10;;;;;;;5.08;100.00;102231.13;5017836;28;20167;-77
2021/11/15 01:00:24;;;;;;;61.03;22.98;;;;;;;5.08;100.00;102230.25;5007095;28;20059;-80
2021/11/15 01:02:51;;;;;;;57.28;21.23;;;;;;;5.08;100.00;102222.47;5013173;28;20129;-80
2021/11/15 01:05:20;;;;;;;54.08;21.23;;;;;;;5.08;100.00;102231.13;5013371;28;20049;-84
2021/11/15 01:07:49;;;;;;;51.35;20.48;;;;;;;5.09;100.00;102227.72;5010052;28;20042;-81
2021/11/15 01:10:22;;;;;;;52.15;20.15;;;;;;;5.07;100.00;102229.38;5010755;28;20061;-79
2021/11/15 01:12:50;;;;;;;53.03;18.95;;;;;;;5.06;100.00;102219.81;5014244;28;20069;-78
2021/11/15 01:15:24;;;;;;;53.97;21.92;;;;;;;5.07;100.00;102226.78;5011802;28;20101;-79
2021/11/15 01:17:52;;;;;;;;;;;;;;;5.06;100.00;102221.53;5030551;28;20045;-78
2021/11/15 01:20:25;;;;;;;48.08;18.70;;;;;;;5.03;100.00;102217.13;5024366;28;20720;-78
2021/11/15 01:22:51;;;;;;;48.92;18.50;;;;;;;5.00;100.00;102216.97;4997965;28;20569;-80
2021/11/15 01:25:18;;;;;;;46.65;18.48;;;;;;;4.99;100.00;102207.41;4996035;28;20056;-79
2021/11/15 01:27:45;;;;;;;51.55;20.20;;;;;;;4.98;100.00;102210.88;5011166;28;20042;-79
2021/11/15 01:30:15;;;;;;;46.08;17.90;;;;;;;5.02;100.00;102209.25;5003758;28;20057;-82
2021/11/15 01:32:51;;;;;;;40.42;16.88;;;;;;;5.00;100.00;102204.00;4999100;28;20100;-80
2021/11/15 01:35:26;;;;;;;45.63;16.58;;;;;;;5.03;100.00;102213.63;5013181;28;20046;-83
2021/11/15 01:38:04;;;;;;;;;;;;;;;;;;;;;
2021/11/15 01:40:35;;;;;;;39.05;15.80;;;;;;;5.08;100.00;102207.78;5006031;28;20809;-80
2021/11/15 01:43:04;;;;;;;44.15;16.35;;;;;;;5.10;100.00;102211.31;5015191;28;20068;-83
2021/11/15 01:45:35;;;;;;;42.83;17.10;;;;;;;5.12;100.00;102213.97;5016513;28;20053;-79
2021/11/15 01:48:05;;;;;;;47.15;18.27;;;;;;;5.11;100.00;102199.22;5016535;28;20069;-81
2021/11/15 01:50:36;;;;;;;45.67;18.38;;;;;;;5.08;100.00;102197.38;5012829;28;20052;-82
2021/11/15 01:53:08;;;;;;;46.78;17.05;;;;;;;5.08;100.00;102199.13;5013668;28;20044;-81
2021/11/15 01:55:38;;;;;;;39.42;15.98;;;;;;;5.07;100.00;102203.44;5001785;28;20117;-81
2021/11/15 01:58:08;;;;;;;41.28;16.65;;;;;;;5.09;100.00;102195.69;5018775;28;20062;-79
2021/11/15 02:00:54;;;;;;;44.03;17.33;;;;;;;5.11;100.00;102194.03;5012722;28;20058;-83
2021/11/15 02:03:23;;;;;;;42.90;17.08;;;;;;;5.10;100.00;102187.97;5002485;28;20037;-79
2021/11/15 02:05:50;;;;;;;39.70;16.52;;;;;;;5.07;100.00;102181.75;5015200;28;20137;-80
2021/11/15 02:08:20;;;;;;;39.13;16.60;;;;;;;5.08;100.00;102186.13;4999787;28;20033;-82
2021/11/15 02:10:47;;;;;;;39.10;17.40;;;;;;;5.09;100.00;102177.53;5007484;28;20084;-78
2021/11/15 02:13:16;;;;;;;45.65;18.67;;;;;;;5.09;100.00;102172.34;5015563;28;20589;-79
2021/11/15 02:15:45;;;;;;;48.28;18.38;;;;;;;5.09;100.00;102178.41;5016100;28;20170;-80
2021/11/15 02:18:18;;;;;;;42.72;17.45;;;;;;;5.10;100.00;102175.00;5015993;28;20065;-79
2021/11/15 02:20:54;;;;;;;44.78;18.08;;;;;;;5.09;100.00;102168.00;5010843;28;20514;-82
2021/11/15 02:23:25;;;;;;;45.72;19.10;;;;;;;5.09;100.00;102161.97;5030514;28;20041;-81
2021/11/15 02:25:55;;;;;;;48.38;19.40;;;;;;;5.11;100.00;102158.59;5003053;28;20063;-82
2021/11/15 02:28:30;;;;;;;48.80;20.55;;;;;;;5.14;99.48;102166.47;4999743;28;20046;-78
2021/11/15 02:30:58;;;;;;;45.88;19.17;;;;;;;5.10;99.35;102162.00;4996903;28;20371;-78
2021/11/15 02:33:25;;;;;;;47.25;20.45;;;;;;;5.11;99.82;102155.09;5001565;28;20570;-81
2021/11/15 02:35:52;;;;;;;49.70;20.70;;;;;;;5.11;99.07;102153.41;4997496;28;20437;-79
2021/11/15 02:38:19;;;;;;;47.03;21.02;;;;;;;5.11;98.98;102156.00;5018648;28;21068;-83
2021/11/15 02:41:10;;;;;;;52.50;21.10;;;;;;;5.10;98.77;102154.22;5024239;28;20050;-81
2021/11/15 02:43:36;;;;;;;55.38;23.05;;;;;;;5.12;98.24;102169.84;5018493;28;20060;-82
2021/11/15 02:46:03;;;;;;;56.88;24.70;;;;;;;5.09;98.46;102164.56;5016941;28;20067;-79
2021/11/15 02:48:34;;;;;;;52.28;22.40;;;;;;;5.09;98.91;102152.44;5004934;28;20069;-80
2021/11/15 02:51:00;;;;;;;55.70;23.98;;;;;;;5.12;98.78;102151.69;4995294;28;20057;-79
2021/11/15 02:53:29;;;;;;;61.65;25.23;;;;;;;5.14;98.83;102161.28;4994557;28;20136;-79
2021/11/15 02:55:56;;;;;;;52.47;24.25;;;;;;;5.17;98.88;102165.72;5014478;28;20060;-78
2021/11/15 02:58:23;;;;;;;62.78;26.58;;;;;;;5.17;98.48;102154.47;5017458;28;20049;-78
2021/11/15 03:00:58;;;;;;;70.30;26.13;;;;;;;5.18;98.73;102154.50;5010001;28;20660;-78
2021/11/15 03:03:26;;;;;;;58.85;25.23;;;;;;;5.19;98.77;102150.19;5018727;28;20044;-81
2021/11/15 03:05:56;;;;;;;63.72;25.67;;;;;;;5.20;98.50;102150.28;4999680;28;20546;-78
2021/11/15 03:08:26;;;;;;;60.25;25.50;;;;;;;5.19;98.39;102153.69;5001861;28;20052;-79
2021/11/15 03:10:59;;;;;;;58.25;27.00;;;;;;;5.19;98.38;102153.69;5009058;28;20536;-81
2021/11/15 03:13:43;;;;;;;66.70;26.67;;;;;;;5.20;98.67;102155.47;5017682;28;20041;-79
2021/11/15 03:16:11;;;;;;;60.03;25.92;;;;;;;5.22;98.58;102156.38;5008702;28;20053;-82
2021/11/15 03:18:42;;;;;;;66.15;27.67;;;;;;;5.22;98.05;102152.91;5017861;28;20052;-81
2021/11/15 03:21:13;;;;;;;66.43;28.35;;;;;;;5.23;98.14;102149.50;5012201;28;20041;-81
2021/11/15 03:23:46;;;;;;;66.43;31.60;;;;;;;5.24;97.66;102151.25;5002067;28;20054;-80
2021/11/15 03:26:23;;;;;;;71.10;30.20;;;;;;;5.23;97.76;102144.31;5003134;28;21425;-79
2021/11/15 03:29:00;;;;;;;72.43;33.70;;;;;;;5.22;97.71;102142.53;5017031;28;20222;-84
2021/11/15 03:31:58;;;;;;;66.72;31.23;;;;;;;5.23;97.91;102149.50;5010395;28;20138;-79
2021/11/15 03:34:29;;;;;;;57.78;28.88;;;;;;;5.22;97.93;102153.78;5031646;28;20037;-83
2021/11/15 03:36:56;;;;;;;60.65;27.52;;;;;;;5.23;97.82;102154.69;5015255;28;20156;-83
2021/11/15 03:39:30;;;;;;;68.15;29.30;;;;;;;5.25;97.87;102155.63;5010054;28;20049;-79
2021/11/15 03:42:02;;;;;;;72.88;29.80;;;;;;;5.24;97.47;102161.63;5014905;28;20058;-80
2021/11/15 03:44:31;;;;;;;63.65;27.10;;;;;;;5.23;96.92;102165.09;5016260;28;20052;-82
2021/11/15 03:46:57;;;;;;;63.67;28.52;;;;;;;5.19;96.90;102161.47;5032195;28;20129;-85
2021/11/15 03:49:25;;;;;;;65.75;28.67;;;;;;;5.14;97.23;102169.06;4995006;28;20054;-83
2021/11/15 03:51:51;;;;;;;70.55;31.70;;;;;;;5.14;96.99;102166.47;5014468;28;20085;-85
2021/11/15 03:54:18;;;;;;;70.20;29.48;;;;;;;5.13;97.39;102174.22;5011076;28;20050;-81
2021/11/15 03:56:45;;;;;;;72.53;30.80;;;;;;;5.15;97.21;102169.97;5017129;28;20127;-80
2021/11/15 03:59:13;;;;;;;67.35;28.08;;;;;;;5.18;97.56;102164.03;5008894;28;20049;-82
2021/11/15 04:01:42;;;;;;;66.07;29.48;;;;;;;5.20;97.45;102159.75;5011044;28;20442;-82
2021/11/15 04:04:16;;;;;;;73.03;28.85;;;;;;;5.20;97.25;102167.53;5014224;28;20115;-79
2021/11/15 04:06:49;;;;;;;;;;;;;;;5.19;96.99;102165.75;5017168;28;20495;-78
2021/11/15 04:09:16;;;;;;;68.35;26.20;;;;;;;5.19;97.23;102165.75;5010997;28;20549;-81
2021/11/15 04:11:44;;;;;;;69.22;27.83;;;;;;;5.19;96.95;102161.47;4995963;28;20056;-79
2021/11/15 04:14:14;;;;;;;73.22;29.52;;;;;;;5.17;96.27;102157.06;5003090;28;20604;-82
2021/11/15 04:16:45;;;;;;;66.80;28.83;;;;;;;5.13;96.39;102166.44;5015268;28;20873;-79
2021/11/15 04:19:17;;;;;;;60.92;28.15;;;;;;;5.11;96.75;102157.69;5016986;28;20084;-79
2021/11/15 04:21:43;;;;;;;62.78;26.67;;;;;;;5.11;96.70;102161.19;5019501;28;20128;-82
2021/11/15 04:24:13;;;;;;;55.88;26.88;;;;;;;5.12;96.84;102160.38;5015561;28;20037;-81
2021/11/15 04:26:42;;;;;;;66.07;27.80;;;;;;;5.13;96.39;102161.25;5017139;28;20048;-79
2021/11/15 04:29:09;;;;;;;65.28;26.23;;;;;;;5.09;96.61;102155.03;5023825;28;20060;-82
2021/11/15 04:31:35;;;;;;;66.28;27.70;;;;;;;5.09;96.33;102157.63;5007910;28;20049;-83
2021/11/15 04:34:08;;;;;;;53.58;25.35;;;;;;;5.05;95.22;102160.06;5021139;28;20048;-78
2021/11/15 04:36:34;;;;;;;51.30;24.50;;;;;;;4.98;95.39;102151.19;5015990;28;21321;-79
2021/11/15 04:39:02;;;;;;;56.22;23.33;;;;;;;4.97;95.78;102155.47;5010254;28;20135;-82
2021/11/15 04:41:28;;;;;;;52.00;23.40;;;;;;;4.94;95.42;102163.16;5015755;28;20419;-79
2021/11/15 04:44:00;;;;;;;47.72;22.95;;;;;;;4.91;94.96;102155.22;5012272;28;20143;-79
2021/11/15 04:46:27;;;;;;;39.25;21.60;;;;;;;4.89;95.46;102156.88;5037369;28;20049;-79
2021/11/15 04:48:54;;;;;;;47.00;21.40;;;;;;;4.89;95.10;102158.56;5014428;28;20568;-83
2021/11/15 04:51:21;;;;;;;50.38;22.92;;;;;;;4.90;95.13;102158.66;5021743;28;20053;-79
2021/11/15 04:53:48;;;;;;;47.83;23.73;;;;;;;4.89;95.10;102167.25;5023230;28;20063;-84
2021/11/15 04:56:19;;;;;;;41.35;21.58;;;;;;;4.89;95.07;102159.47;5030259;28;20080;-83
2021/11/15 04:58:46;;;;;;;48.97;23.58;;;;;;;4.89;94.88;102159.47;5031036;28;20110;-84
2021/11/15 05:01:14;;;;;;;45.22;22.02;;;;;;;4.88;94.43;102160.31;5027082;28;20068;-79
2021/11/15 05:03:44;;;;;;;48.10;22.80;;;;;;;4.89;94.61;102164.66;5031152;28;20123;-80
2021/11/15 05:06:31;;;;;;;51.08;23.45;;;;;;;4.88;94.50;102154.25;5023893;28;20052;-84
2021/11/15 05:09:04;;;;;;;47.92;23.55;;;;;;;4.88;94.07;102162.03;5024165;28;20050;-84
2021/11/15 05:11:30;;;;;;;50.28;22.45;;;;;;;4.86;94.11;102159.34;5038470;28;20045;-85
2021/11/15 05:13:57;;;;;;;35.85;21.00;;;;;;;4.84;94.19;102154.91;5016531;28;20033;-84
2021/11/15 05:16:24;;;;;;;49.00;24.17;;;;;;;4.83;94.38;102148.84;5042454;28;20045;-80
2021/11/15 05:18:50;;;;;;;46.25;22.35;;;;;;;4.85;94.07;102147.22;5022624;28;20141;-79
2021/11/15 05:21:17;;;;;;;44.95;22.17;;;;;;;4.80;93.65;102143.56;5029695;28;20387;-84
2021/11/15 05:23:44;;;;;;;44.92;23.65;;;;;;;4.80;93.77;102143.56;5024999;28;20479;-80
2021/11/15 05:26:11;;;;;;;41.60;20.55;;;;;;;4.79;93.64;102144.38;5023070;28;20037;-79
2021/11/15 05:28:44;;;;;;;40.38;21.15;;;;;;;4.77;94.07;102141.72;5009189;28;20440;-78
2021/11/15 05:31:10;;;;;;;44.67;22.05;;;;;;;4.76;93.81;102154.66;5018313;28;20057;-77
2021/11/15 05:33:37;;;;;;;46.70;22.45;;;;;;;4.75;93.72;102151.16;5025362;28;20531;-79
2021/11/15 05:36:05;;;;;;;49.88;24.27;;;;;;;4.75;93.77;102151.16;5023120;28;20468;-80
2021/11/15 05:38:32;;;;;;;49.78;23.75;;;;;;;4.73;93.95;102163.19;5017366;28;20053;-80
2021/11/15 05:41:02;;;;;;;50.42;21.83;;;;;;;4.72;94.14;102163.09;5019726;28;20132;-81
2021/11/15 05:43:29;;;;;;;43.38;20.95;;;;;;;4.73;94.17;102162.28;5004136;28;20148;-76
2021/11/15 05:45:56;;;;;;;44.00;20.95;;;;;;;4.73;94.38;102167.47;5007511;28;20491;-79
2021/11/15 05:48:22;;;;;;;43.08;21.17;;;;;;;4.72;94.00;102160.50;5021844;28;20048;-82
2021/11/15 05:50:49;;;;;;;41.58;20.75;;;;;;;4.73;93.44;102159.69;5019407;28;20110;-79
2021/11/15 05:53:16;;;;;;;46.90;22.52;;;;;;;4.73;93.99;102158.00;5021534;28;20479;-84
2021/11/15 05:55:44;;;;;;;40.75;20.70;;;;;;;4.77;93.92;102166.78;5002019;28;20042;-77
2021/11/15 05:58:11;;;;;;;41.45;22.80;;;;;;;4.74;92.71;102167.53;5020788;28;20049;-81
2021/11/15 06:00:39;;;;;;;38.75;20.02;;;;;;;4.72;93.04;102168.31;5001553;28;20037;-80
2021/11/15 06:03:06;;;;;;;41.25;19.85;;;;;;;4.73;93.60;102162.28;5024165;28;20046;-81
2021/11/15 06:05:33;;;;;;;45.10;21.48;;;;;;;4.70;93.28;102164.78;5020101;28;20484;-79
2021/11/15 06:08:02;;;;;;;42.28;20.35;;;;;;;4.68;93.43;102169.00;5020141;28;20065;-79
2021/11/15 06:10:32;;;;;;;46.85;21.65;;;;;;;4.69;93.86;102163.00;5018208;28;20117;-83
2021/11/15 06:13:01;;;;;;;43.13;21.10;;;;;;;4.70;93.49;102176.03;5018842;28;20546;-84
2021/11/15 06:15:29;;;;;;;42.90;21.55;;;;;;;4.71;93.61;102164.84;5002931;28;20559;-85
2021/11/15 06:17:56;;;;;;;42.65;22.55;;;;;;;4.73;93.68;102170.97;5032701;28;20045;-83
2021/11/15 06:20:22;;;;;;;43.97;20.92;;;;;;;4.70;93.26;102163.06;5014794;28;20056;-83
2021/11/15 06:22:49;;;;;;;39.90;19.70;;;;;;;4.69;92.75;102161.28;5020277;28;20056;-82
2021/11/15 06:25:19;;;;;;;39.88;19.30;;;;;;;4.69;93.25;102163.88;5003142;28;20065;-79
2021/11/15 06:27:46;;;;;;;40.33;21.90;;;;;;;4.70;93.63;102168.25;5022013;28;20049;-78
2021/11/15 06:30:17;;;;;;;41.70;20.60;;;;;;;4.70;92.95;102160.47;5005224;28;20085;-81
2021/11/15 06:32:44;;;;;;;36.13;18.08;;;;;;;4.69;93.00;102156.09;5004200;28;20045;-80
2021/11/15 06:35:12;;;;;;;43.78;20.13;;;;;;;4.66;92.86;102158.56;5018370;28;20488;-78
2021/11/15 06:37:39;;;;;;;40.90;19.95;;;;;;;4.69;92.87;102168.19;5035300;28;20570;-79
2021/11/15 06:40:08;;;;;;;43.38;18.55;;;;;;;4.68;92.61;102171.59;5000404;28;20056;-83
2021/11/15 06:42:35;;;;;;;37.20;19.08;;;;;;;4.68;92.91;102166.41;5001676;28;20075;-78
2021/11/15 06:45:02;;;;;;;36.78;18.60;;;;;;;4.70;92.48;102172.56;5003141;28;20119;-79
2021/11/15 06:47:33;;;;;;;40.08;19.73;;;;;;;4.71;92.60;102174.34;5033979;28;20050;-81
2021/11/15 06:50:00;;;;;;;43.35;22.38;;;;;;;4.74;93.36;102175.31;5017337;28;21253;-80
2021/11/15 06:52:28;;;;;;;33.80;18.23;;;;;;;4.75;93.19;102171.03;4998647;28;20049;-78
2021/11/15 06:54:54;;;;;;;39.28;19.13;;;;;;;4.79;93.11;102180.69;5012007;28;20446;-78
2021/11/15 06:57:21;;;;;;;36.65;18.20;;;;;;;4.80;92.68;102182.47;5018857;28;20126;-80
2021/11/15 06:59:50;;;;;;;31.85;18.15;;;;;;;4.80;92.42;102177.28;5021266;28;21244;-78
2021/11/15 07:02:17;;;;;;;41.38;19.60;;;;;;;4.81;92.55;102184.25;5018038;28;20061;-79
2021/11/15 07:04:44;;;;;;;36.78;19.00;;;;;;;4.81;92.34;102184.25;5019566;28;20060;-81
2021/11/15 07:07:10;;;;;;;36.90;17.73;;;;;;;4.80;92.38;102188.53;5007750;28;20057;-79
2021/11/15 07:09:37;;;;;;;35.85;17.52;;;;;;;4.80;92.68;102188.53;5012919;28;20052;-81
2021/11/15 07:12:04;;;;;;;39.13;19.13;;;;;;;4.82;92.41;102190.31;5015241;28;20120;-82
2021/11/15 07:14:31;;;;;;;33.53;18.98;;;;;;;4.84;92.79;102188.66;5003064;28;20436;-78
2021/11/15 07:16:57;;;;;;;39.90;19.00;;;;;;;4.84;92.89;102196.44;5016052;28;20171;-78
2021/11/15 07:19:24;;;;;;;34.45;19.55;;;;;;;4.85;92.82;102186.16;5015437;28;20095;-79
2021/11/15 07:21:51;;;;;;;39.15;20.20;;;;;;;4.88;92.57;102188.84;5022513;28;20051;-81
2021/11/15 07:24:18;;;;;;;41.15;19.15;;;;;;;4.90;92.08;102188.91;5001739;28;20049;-81
2021/11/15 07:26:45;;;;;;;36.72;19.40;;;;;;;4.92;91.76;102187.25;5003911;28;20549;-83
2021/11/15 07:29:11;;;;;;;40.42;20.13;;;;;;;4.89;91.72;102195.81;5016784;28;20068;-77
2021/11/15 07:31:39;;;;;;;34.08;17.50;;;;;;;4.88;92.02;102196.63;5017039;28;20741;-82
2021/11/15 07:34:06;;;;;;;36.72;17.73;;;;;;;4.90;92.27;102197.59;5020775;28;20033;-78
2021/11/15 07:36:33;;;;;;;42.47;18.88;;;;;;;4.93;92.01;102196.81;5017301;28;20049;-79
2021/11/15 07:39:00;;;;;;;35.63;19.52;;;;;;;4.95;91.68;102193.47;5013545;28;20033;-80
2021/11/15 07:41:26;;;;;;;38.28;18.42;;;;;;;4.96;91.68;102191.75;5016262;28;20570;-78
2021/11/15 07:43:54;;;;;;;36.33;19.20;;;;;;;4.99;91.50;102201.34;5019881;28;20045;-84
2021/11/15 07:46:21;;;;;;;31.48;18.63;;;;;;;5.02;91.56;102197.19;5020922;28;20042;-80
2021/11/15 07:48:47;;;;;;;34.85;17.75;;;;;;;5.07;92.08;102192.16;5016840;28;20475;-81
2021/11/15 07:51:14;;;;;;;36.83;17.05;;;;;;;5.09;91.58;102196.56;5002344;28;20056;-79
2021/11/15 07:53:40;;;;;;;34.85;17.10;;;;;;;5.10;90.69;102189.69;5016935;28;20037;-79
2021/11/15 07:56:11;;;;;;;32.90;16.20;;;;;;;5.08;90.54;102194.78;5015670;28;20492;-79
2021/11/15 07:58:39;;;;;;;31.80;16.58;;;;;;;5.06;90.73;102192.97;5020855;28;20045;-81
2021/11/15 08:01:06;;;;;;;31.08;16.08;;;;;;;5.09;90.96;102200.88;5019683;28;20500;-78
2021/11/15 08:03:33;;;;;;;35.17;16.63;;;;;;;5.10;90.91;102197.47;5008066;28;20075;-84
2021/11/15 08:05:59;;;;;;;35.65;17.85;;;;;;;5.11;90.96;102199.22;5029101;28;20585;-78
2021/11/15 08:08:26;;;;;;;33.78;18.73;;;;;;;5.13;91.01;102193.25;5018414;28;20045;-78
2021/11/15 08:10:52;;;;;;;37.88;18.25;;;;;;;5.16;90.48;102191.63;4995569;28;20050;-78
2021/11/15 08:13:22;;;;;;;36.65;17.77;;;;;;;5.18;90.01;102188.25;5019754;28;20385;-78
2021/11/15 08:15:49;;;;;;;42.95;20.00;;;;;;;5.17;90.34;102190.81;5014840;28;20515;-79
2021/11/15 08:18:15;;;;;;;35.95;18.45;;;;;;;5.17;89.71;102186.47;5014536;28;20046;-79
2021/11/15 08:20:42;;;;;;;29.88;16.38;;;;;;;5.14;90.36;102183.78;5014158;28;20033;-79
2021/11/15 08:23:13;;;;;;;39.50;19.08;;;;;;;5.15;89.88;102185.56;5013917;28;20148;-82
2021/11/15 08:26:27;;;;;;;37.83;18.73;;;;;;;5.15;90.14;102188.16;5009624;28;20136;-83
2021/11/15 08:29:08;;;;;;;37.20;20.67;;;;;;;5.18;90.49;102188.25;5001211;28;20611;-83
2021/11/15 08:31:37;;;;;;;43.70;19.20;;;;;;;5.19;90.05;102189.13;5016730;28;20132;-83
2021/11/15 08:34:04;;;;;;;38.42;17.55;;;;;;;5.21;89.60;102190.97;4999375;28;20048;-77
2021/11/15 08:36:31;;;;;;;42.30;21.17;;;;;;;5.18;89.98;102183.06;5000592;28;20064;-80
2021/11/15 08:39:07;;;;;;;38.22;17.48;;;;;;;5.19;90.22;102184.84;4999511;28;20112;-79
2021/11/15 08:41:39;;;;;;;40.75;18.50;;;;;;;5.22;89.62;102182.34;5019666;28;20041;-82
2021/11/15 08:44:10;;;;;;;38.58;19.35;;;;;;;5.19;89.79;102184.84;5013118;28;20056;-84
2021/11/15 08:46:38;;;;;;;31.58;17.50;;;;;;;5.19;89.74;102176.16;5013722;28;20107;-82
2021/11/15 08:49:09;;;;;;;32.80;18.13;;;;;;;5.18;89.91;102172.69;5009770;28;20042;-79
2021/11/15 08:51:37;;;;;;;36.65;17.67;;;;;;;5.19;89.53;102168.38;5029544;28;20052;-78
2021/11/15 08:54:08;;;;;;;37.92;19.58;;;;;;;5.17;89.55;102173.50;5003246;28;20048;-79
2021/11/15 08:56:35;;;;;;;39.53;18.95;;;;;;;5.17;89.58;102173.50;5000162;28;20095;-84
2021/11/15 08:59:03;;;;;;;34.92;17.50;;;;;;;5.18;89.86;102172.69;5017224;28;20112;-83
2021/11/15 09:01:29;;;;;;;41.08;18.02;;;;;;;5.23;89.74;102173.75;5000176;28;20061;-81
2021/11/15 09:03:56;;;;;;;41.13;21.25;;;;;;;5.28;89.52;102159.22;5015285;28;20484;-77
2021/11/15 09:06:29;;;;;;;33.33;17.83;;;;;;;5.34;88.66;102157.69;5010490;28;20049;-82
2021/11/15 09:08:56;;;;;;;42.08;18.08;;;;;;;5.28;89.02;102161.81;5006860;28;20060;-83
2021/11/15 09:11:23;;;;;;;35.25;17.33;;;;;;;5.29;89.02;102157.50;5028310;28;20050;-83
2021/11/15 09:13:50;;;;;;;34.47;16.85;;;;;;;5.33;89.58;102158.50;5026187;28;20081;-84
2021/11/15 09:16:16;;;;;;;35.00;19.92;;;;;;;5.38;88.77;102164.75;5030108;28;20050;-78
2021/11/15 09:18:44;;;;;;;36.85;19.02;;;;;;;5.41;88.94;102162.25;5034456;28;20041;-79
2021/11/15 09:21:16;;;;;;;36.25;17.70;;;;;;;5.41;88.49;102165.75;5028985;28;20056;-80
2021/11/15 09:23:47;;;;;;;38.72;18.80;;;;;;;5.41;87.82;102165.75;5038067;28;20038;-79
2021/11/15 09:26:18;;;;;;;33.92;16.67;;;;;;;5.42;87.91;102170.13;5016694;28;20484;-81
2021/11/15 09:28:46;;;;;;;34.72;15.77;;;;;;;5.41;87.64;102172.63;5040209;28;20468;-79
2021/11/15 09:31:13;;;;;;;31.98;15.57;;;;;;;5.43;87.81;102173.59;5018493;28;20041;-80
2021/11/15 09:33:40;;;;;;;35.05;18.77;;;;;;;5.44;87.78;102167.59;5022590;28;20144;-79
2021/11/15 09:36:09;;;;;;;33.97;17.05;;;;;;;5.47;87.60;102173.78;4998886;28;20152;-79
2021/11/15 09:38:37;;;;;;;36.35;15.70;;;;;;;5.46;87.51;102172.00;5015833;28;20049;-82
2021/11/15 09:41:07;;;;;;;34.00;15.20;;;;;;;5.49;87.49;102172.91;5019703;28;20057;-77
2021/11/15 09:43:37;;;;;;;32.22;15.35;;;;;;;5.50;87.33;102177.28;5015677;28;20084;-78
2021/11/15 09:46:15;;;;;;;33.97;17.83;;;;;;;5.52;87.59;102178.25;5015377;28;20634;-79
2021/11/15 09:48:46;;;;;;;38.20;16.85;;;;;;;5.55;87.70;102168.84;5019234;28;20140;-81
2021/11/15 09:51:14;;;;;;;34.40;16.30;;;;;;;5.57;87.56;102168.91;5015279;28;20452;-80
2021/11/15 09:53:41;;;;;;;33.85;15.65;;;;;;;5.59;87.38;102169.84;5029632;28;20047;-79
2021/11/15 09:56:11;;;;;;;31.17;16.23;;;;;;;5.58;87.45;102165.47;5018024;28;20137;-82
2021/11/15 09:58:38;;;;;;;35.90;17.00;;;;;;;5.58;87.35;102166.38;5020043;28;20095;-79
2021/11/15 10:01:06;;;;;;;37.15;16.88;;;;;;;5.56;87.55;102169.72;4996459;28;20169;-77
2021/11/15 10:03:34;;;;;;;30.60;16.77;;;;;;;5.58;87.57;102165.47;5025650;28;20091;-80
2021/11/15 10:06:02;;;;;;;35.50;17.55;;;;;;;5.61;86.93;102176.84;5027440;28;20053;-77
2021/11/15 10:09:00;;;;;;;34.97;16.38;;;;;;;5.60;87.52;102169.88;5017197;28;20049;-79
2021/11/15 10:11:27;;;;;;;34.00;17.73;;;;;;;5.62;87.07;102167.38;5023218;28;20041;-78
2021/11/15 10:13:57;;;;;;;41.08;19.25;;;;;;;5.63;87.56;102164.81;5021947;28;20049;-80
2021/11/15 10:16:27;;;;;;;39.20;16.83;;;;;;;5.64;87.11;102160.50;5001519;28;20198;-77
2021/11/15 10:19:02;;;;;;;40.45;21.15;;;;;;;5.65;87.58;102167.47;5003535;28;20049;-83
2021/11/15 10:21:54;;;;;;;39.50;17.98;;;;;;;5.65;86.87;102162.28;5018468;28;20057;-77
2021/11/15 10:24:31;;;;;;;38.67;17.40;;;;;;;5.66;87.56;102163.13;5020070;28;20547;-82
2021/11/15 10:27:17;;;;;;;39.70;18.17;;;;;;;5.69;87.45;102160.66;5017110;28;20115;-79
2021/11/15 10:29:49;;;;;;;35.28;17.35;;;;;;;5.72;87.33;102152.97;5017291;28;20133;-77
2021/11/15 10:32:28;;;;;;;40.60;16.55;;;;;;;5.76;87.11;102165.22;5000782;28;20053;-78
2021/11/15 10:35:04;;;;;;;38.40;19.25;;;;;;;5.76;87.31;102158.34;5020443;28;20077;-79
2021/11/15 10:37:36;;;;;;;36.03;17.63;;;;;;;5.79;86.54;102162.78;5020059;28;20136;-80
2021/11/15 10:40:11;;;;;;;45.53;17.35;;;;;;;5.79;86.70;102152.38;5016728;28;20044;-79
2021/11/15 10:42:44;;;;;;;33.22;16.50;;;;;;;5.77;86.49;102151.41;5021044;28;20050;-81
2021/11/15 10:45:16;;;;;;;;;;;;;;;5.75;86.28;102151.38;5001409;28;20467;-79
2021/11/15 10:47:54;;;;;;;28.63;15.68;;;;;;;5.76;86.62;102142.75;5023247;28;20367;-79
2021/11/15 10:50:44;;;;;;;27.02;14.88;;;;;;;5.76;86.67;102145.34;5016566;28;20386;-77
2021/11/15 10:53:18;;;;;;;29.45;15.82;;;;;;;5.76;86.27;102137.56;5014543;28;20044;-77
2021/11/15 10:56:10;;;;;;;30.83;15.73;;;;;;;5.75;86.32;102142.69;5013328;28;20046;-82
2021/11/15 10:58:46;;;;;;;29.25;16.55;;;;;;;5.76;86.82;102136.66;5019549;28;20053;-81
2021/11/15 11:01:16;;;;;;;26.75;15.80;;;;;;;5.77;86.80;102141.03;5014956;28;21253;-79
2021/11/15 11:03:43;;;;;;;27.52;15.77;;;;;;;5.79;86.75;102139.38;5019764;28;20474;-80
2021/11/15 11:06:16;;;;;;;27.30;16.48;;;;;;;5.83;86.70;102136.06;5011786;28;20046;-79
2021/11/15 11:08:48;;;;;;;28.08;14.40;;;;;;;5.81;85.51;102135.09;5001490;28;20057;-84
2021/11/15 11:11:30;;;;;;;25.13;15.32;;;;;;;5.77;86.01;102131.50;5015447;28;20124;-81
2021/11/15 11:14:10;;;;;;;27.58;16.63;;;;;;;5.82;86.42;102136.00;5015429;28;20045;-81
2021/11/15 11:16:43;;;;;;;25.58;14.68;;;;;;;5.85;85.88;102121.38;4999583;28;20427;-83
2021/11/15 11:19:18;;;;;;;24.27;15.10;;;;;;;5.88;85.78;102123.19;4997827;28;20045;-83
2021/11/15 11:22:10;;;;;;;25.48;15.73;;;;;;;5.91;85.99;102115.53;5019802;28;20064;-84
2021/11/15 11:24:43;;;;;;;29.33;17.35;;;;;;;5.86;85.37;102112.75;5021230;28;20111;-78
2021/11/15 11:27:18;;;;;;;28.10;16.25;;;;;;;5.85;84.81;102117.91;5017234;28;20049;-78
2021/11/15 11:29:50;;;;;;;31.20;17.95;;;;;;;5.78;84.57;102117.69;5010793;28;20061;-83